Time;durP1;ratioP1;P1;durP2;ratioP2;P2;SDS_P1;SDS_P2;PMS_P1;PMS_P2;Temp;Humidity;BMP_temperature;BMP_pressure;BME280_temperature;BME280_humidity;BME280_pressure;Samples;Min_cycle;Max_cycle;Signal;HPM_P1;HPM_P2
2022/01/23 00:01:09;;;;;;;17.40;5.95;;;;;;;4.08;98.87;102716.63;6074945;28;20519;-72
2022/01/23 00:04:04;;;;;;;17.05;5.00;;;;;;;4.04;98.77;102709.81;6076294;28;20052;-72
2022/01/23 00:07:03;;;;;;;16.67;5.40;;;;;;;4.00;99.46;102709.03;6076719;28;20038;-73
2022/01/23 00:09:59;;;;;;;13.18;5.70;;;;;;;3.97;99.46;102703.03;6076076;28;20033;-73
2022/01/23 00:13:07;;;;;;;13.43;5.47;;;;;;;3.95;99.51;102699.63;6076340;28;20041;-73
2022/01/23 00:19:16;;;;;;;18.48;5.90;;;;;;;3.94;98.92;102703.19;6063137;28;20033;-73
2022/01/23 00:22:12;;;;;;;13.40;6.13;;;;;;;3.92;99.09;102711.09;6074553;28;20050;-73
2022/01/23 00:30:20;;;;;;;17.55;7.43;;;;;;;3.86;98.84;102710.47;6063184;28;20029;-73
2022/01/23 00:31:50;;;;;;;15.13;6.22;;;;;;;3.80;98.67;102706.28;6068671;28;20083;-73
2022/01/23 00:34:45;;;;;;;17.03;5.97;;;;;;;3.77;99.41;102695.91;6061277;28;20120;-73
2022/01/23 00:37:41;;;;;;;15.13;5.67;;;;;;;3.73;98.61;102714.41;6065057;28;20291;-73
2022/01/23 00:40:38;;;;;;;20.73;7.07;;;;;;;3.66;98.81;102708.53;6071078;28;20022;-73
2022/01/23 00:43:35;;;;;;;21.10;7.28;;;;;;;3.69;98.58;102711.03;6075893;28;20120;-72
2022/01/23 00:46:34;;;;;;;19.50;6.95;;;;;;;3.72;99.71;102712.72;6075894;28;20038;-73
2022/01/23 00:49:29;;;;;;;26.92;7.30;;;;;;;3.74;99.00;102700.38;6074654;28;20549;-73
2022/01/23 00:52:25;;;;;;;22.00;7.03;;;;;;;3.78;98.37;102707.25;6073420;28;20095;-72
2022/01/23 00:55:20;;;;;;;17.53;7.40;;;;;;;3.76;99.04;102703.81;6075416;28;20026;-73
2022/01/23 00:58:16;;;;;;;17.88;7.15;;;;;;;3.73;99.24;102703.91;6074679;28;20029;-73
2022/01/23 01:01:12;;;;;;;17.52;7.25;;;;;;;3.73;99.16;102698.66;6074165;28;20403;-73
2022/01/23 01:04:07;;;;;;;16.23;7.20;;;;;;;3.71;99.08;102700.50;6075484;28;20494;-73
2022/01/23 01:07:03;;;;;;;22.23;7.37;;;;;;;3.71;98.98;102701.34;6074612;28;20045;-73
2022/01/23 01:10:04;;;;;;;19.15;6.93;;;;;;;3.69;98.84;102697.94;6073643;28;20032;-73
2022/01/23 01:13:01;;;;;;;16.48;6.93;;;;;;;3.67;99.29;102699.72;6074338;28;20117;-73
2022/01/23 01:16:24;;;;;;;19.85;7.13;;;;;;;3.68;98.51;102706.69;6062740;28;20045;-73
2022/01/23 01:30:16;;;;;;;17.38;6.95;;;;;;;3.55;98.82;102711.53;6072796;28;20116;-73
2022/01/23 01:32:43;;;;;;;19.73;6.65;;;;;;;3.33;98.90;102720.16;6072641;28;20033;-73
2022/01/23 01:35:44;;;;;;;20.52;6.78;;;;;;;3.27;99.10;102730.81;6064542;28;20037;-73
2022/01/23 01:38:39;;;;;;;20.63;7.00;;;;;;;3.28;98.80;102711.56;6073905;28;20381;-72
2022/01/23 01:41:36;;;;;;;17.07;7.17;;;;;;;3.32;98.87;102721.91;6071903;28;20037;-72
2022/01/23 01:44:32;;;;;;;19.88;7.85;;;;;;;3.33;99.44;102726.25;6074100;28;20029;-73
2022/01/23 01:47:27;;;;;;;19.70;7.17;;;;;;;3.43;98.80;102740.75;6057850;28;20045;-73
2022/01/23 01:50:23;;;;;;;20.40;7.87;;;;;;;3.51;99.26;102740.50;6066976;28;20044;-73
2022/01/23 01:53:18;;;;;;;21.48;7.43;;;;;;;3.58;99.46;102734.16;6070133;28;20033;-73
2022/01/23 01:56:13;;;;;;;24.67;7.90;;;;;;;3.61;98.94;102731.44;6070136;28;20198;-72
2022/01/23 01:59:21;;;;;;;20.40;8.55;;;;;;;3.63;98.76;102739.25;6070559;28;20029;-73
2022/01/23 02:08:51;;;;;;;18.90;6.93;;;;;;;3.53;98.86;102729.06;6070868;28;20037;-72
2022/01/23 02:18:13;;;;;;;24.08;8.45;;;;;;;3.54;98.43;102730.78;6069751;28;20061;-73
2022/01/23 02:53:40;;;;;;;17.23;6.55;;;;;;;3.59;99.42;102720.97;6069483;28;20046;-72
2022/01/23 02:56:39;;;;;;;18.00;6.35;;;;;;;3.61;99.43;102719.16;6070136;28;20041;-72
2022/01/23 02:59:36;;;;;;;19.65;7.28;;;;;;;3.58;98.85;102715.81;6065477;28;20080;-73
2022/01/23 03:02:39;;;;;;;15.10;6.15;;;;;;;3.55;99.29;102714.16;6068230;28;20041;-72
2022/01/23 03:05:37;;;;;;;16.27;6.65;;;;;;;3.46;99.61;102717.06;6068665;28;20037;-72
2022/01/23 03:08:57;;;;;;;15.55;6.78;;;;;;;3.38;98.56;102713.84;6066863;28;20055;-72
2022/01/23 03:12:06;;;;;;;17.15;5.72;;;;;;;3.39;98.79;102731.31;6068392;28;20069;-72
2022/01/23 03:15:13;;;;;;;13.73;6.20;;;;;;;3.39;99.26;102726.06;6069300;28;20041;-73
2022/01/23 03:25:04;;;;;;;17.02;6.25;;;;;;;3.52;98.50;102740.47;6064119;28;20123;-73
2022/01/23 03:31:20;;;;;;;15.52;6.63;;;;;;;3.60;99.37;102737.59;6068455;28;20037;-73
2022/01/23 03:34:16;;;;;;;17.23;6.90;;;;;;;3.61;98.60;102734.91;6069090;28;20041;-73
2022/01/23 03:37:11;;;;;;;17.50;6.40;;;;;;;3.64;98.53;102730.47;6069963;28;20531;-73
2022/01/23 03:40:07;;;;;;;20.07;7.07;;;;;;;3.70;99.25;102718.00;6070576;28;20276;-72
2022/01/23 03:43:11;;;;;;;15.77;6.25;;;;;;;3.63;99.33;102718.25;6051284;28;20314;-73
2022/01/23 03:52:33;;;;;;;15.40;6.50;;;;;;;3.70;98.35;102719.75;6073564;28;20107;-72
2022/01/23 03:55:29;;;;;;;23.53;7.53;;;;;;;3.76;99.30;102732.66;6073091;28;20127;-73
2022/01/23 03:58:24;;;;;;;19.67;7.57;;;;;;;3.73;98.70;102735.38;6072954;28;20112;-72
2022/01/23 04:01:19;;;;;;;18.37;7.17;;;;;;;3.72;98.33;102736.31;6060594;28;20485;-72
2022/01/23 04:04:32;;;;;;;19.37;7.40;;;;;;;3.72;98.71;102739.81;6073646;28;20030;-72
2022/01/23 04:07:29;;;;;;;16.58;6.95;;;;;;;3.73;98.89;102741.50;6070549;28;20286;-72
2022/01/23 04:10:24;;;;;;;17.15;6.82;;;;;;;3.75;99.29;102744.09;6071906;28;20037;-73
2022/01/23 04:13:27;;;;;;;14.45;6.53;;;;;;;3.82;99.03;102732.47;6073082;28;20087;-72
2022/01/23 04:16:41;;;;;;;18.00;7.35;;;;;;;3.79;98.34;102735.19;6072275;28;20095;-72
2022/01/23 05:00:48;;;;;;;16.98;6.85;;;;;;;3.88;99.08;102738.38;6069654;28;20484;-72
2022/01/23 05:04:20;;;;;;;15.95;6.40;;;;;;;3.93;98.56;102748.69;6067268;28;20127;-73
2022/01/23 05:07:10;;;;;;;20.45;7.93;;;;;;;3.90;97.93;102754.03;6066224;28;20056;-73
2022/01/23 05:10:05;;;;;;;20.88;8.27;;;;;;;3.90;98.42;102761.91;6066048;28;20038;-72
2022/01/23 05:13:02;;;;;;;17.67;7.47;;;;;;;3.91;99.06;102758.38;6062467;28;20079;-72
2022/01/23 05:15:57;;;;;;;22.10;7.90;;;;;;;3.90;98.83;102768.03;6070538;28;20041;-72
2022/01/23 05:18:54;;;;;;;22.70;8.77;;;;;;;3.91;98.60;102772.38;6069573;28;20037;-72
2022/01/23 05:27:59;;;;;;;20.10;7.90;;;;;;;3.94;98.32;102768.78;6068370;28;20418;-72
2022/01/23 05:30:54;;;;;;;18.70;8.57;;;;;;;3.96;98.76;102757.31;6068905;28;20037;-72
2022/01/23 05:33:49;;;;;;;20.40;8.27;;;;;;;3.95;98.55;102763.47;6074335;28;20041;-72
2022/01/23 05:36:45;;;;;;;20.90;8.13;;;;;;;3.90;99.03;102768.03;6073573;28;20392;-72
2022/01/23 05:39:40;;;;;;;21.13;8.57;;;;;;;3.92;98.88;102773.22;6073966;28;20040;-72
2022/01/23 05:42:35;;;;;;;21.03;7.77;;;;;;;4.01;98.28;102767.66;6073270;28;20029;-72
2022/01/23 05:45:30;;;;;;;20.70;8.70;;;;;;;3.94;98.45;102771.41;6074164;28;20384;-72
2022/01/23 05:48:26;;;;;;;27.33;8.83;;;;;;;3.96;98.43;102764.34;6073645;28;20468;-73
2022/01/23 05:51:21;;;;;;;20.17;8.37;;;;;;;3.93;98.78;102774.94;6072222;28;20038;-72
2022/01/23 05:54:16;;;;;;;23.87;8.33;;;;;;;3.95;98.75;102770.47;6073779;28;20045;-72
2022/01/23 05:57:12;;;;;;;17.90;6.67;;;;;;;3.96;98.91;102770.44;6074144;28;20029;-72
2022/01/23 06:00:08;;;;;;;22.57;8.33;;;;;;;3.93;98.97;102759.19;6071295;28;20415;-72
2022/01/23 06:03:03;;;;;;;21.30;7.25;;;;;;;3.98;98.93;102770.38;6074000;28;20481;-72
2022/01/23 06:05:59;;;;;;;19.53;7.83;;;;;;;3.93;98.43;102770.56;6072751;28;20041;-73
2022/01/23 06:08:54;;;;;;;24.17;8.60;;;;;;;3.95;98.86;102773.97;6073262;28;20632;-73
2022/01/23 06:11:50;;;;;;;19.07;6.83;;;;;;;3.95;98.58;102778.34;6072608;28;20489;-72
2022/01/23 06:14:46;;;;;;;18.13;7.93;;;;;;;3.96;99.34;102787.94;6073444;28;20073;-72
2022/01/23 06:17:42;;;;;;;17.53;7.53;;;;;;;3.95;98.68;102780.97;6073881;28;20047;-72
2022/01/23 06:20:37;;;;;;;24.25;9.27;;;;;;;3.95;98.85;102788.84;6071603;28;20481;-72
2022/01/23 06:23:32;;;;;;;25.73;9.13;;;;;;;3.97;98.69;102787.03;6073127;28;20037;-72
2022/01/23 06:26:55;;;;;;;20.20;7.57;;;;;;;3.95;98.77;102794.09;6072762;28;20041;-72
2022/01/23 06:29:50;;;;;;;20.88;8.50;;;;;;;3.99;99.18;102796.59;6072982;28;20037;-72
2022/01/23 06:32:46;;;;;;;21.10;8.27;;;;;;;3.96;98.82;102798.44;6072804;28;20084;-72
2022/01/23 06:35:41;;;;;;;21.53;7.37;;;;;;;3.98;98.31;102799.25;6071969;28;20034;-72
2022/01/23 06:38:36;;;;;;;19.53;7.40;;;;;;;4.00;99.43;102800.91;6070472;28;20503;-73
2022/01/23 06:41:32;;;;;;;15.13;6.70;;;;;;;3.98;98.77;102804.50;6061182;28;20022;-72
2022/01/23 06:44:27;;;;;;;21.60;7.40;;;;;;;4.00;99.19;102813.16;6070165;28;20030;-72
2022/01/23 06:47:22;;;;;;;18.47;8.57;;;;;;;3.98;99.38;102804.50;6072480;28;20043;-72
2022/01/23 06:50:18;;;;;;;19.87;8.37;;;;;;;3.98;98.52;102800.13;6072013;28;20037;-72
2022/01/23 06:53:13;;;;;;;21.47;8.57;;;;;;;4.00;98.82;102802.66;6072721;28;20109;-72
2022/01/23 06:56:08;;;;;;;21.27;8.50;;;;;;;4.00;98.77;102802.66;6071791;28;20048;-72
2022/01/23 06:59:03;;;;;;;22.37;9.13;;;;;;;3.97;99.18;102808.88;6072557;28;20037;-72
2022/01/23 07:01:59;;;;;;;21.60;8.30;;;;;;;3.98;99.24;102812.38;6067730;28;20040;-71
2022/01/23 07:04:54;;;;;;;22.40;7.30;;;;;;;4.01;99.44;102807.88;6069387;28;20443;-71
2022/01/23 07:07:49;;;;;;;21.48;8.23;;;;;;;4.01;99.28;102810.50;6064018;28;20025;-72
2022/01/23 07:10:45;;;;;;;21.23;7.47;;;;;;;4.00;98.88;102808.78;6072089;28;20030;-71
2022/01/23 07:13:40;;;;;;;22.42;8.80;;;;;;;4.02;99.31;102808.75;6077608;28;20085;-71
2022/01/23 07:16:36;;;;;;;21.63;8.27;;;;;;;4.02;99.04;102811.38;6069035;28;20480;-71
2022/01/23 07:19:31;;;;;;;24.37;9.10;;;;;;;4.02;98.98;102814.00;6074790;28;20048;-71
2022/01/23 07:22:26;;;;;;;22.07;8.20;;;;;;;4.01;98.72;102818.38;6076927;28;20767;-71
2022/01/23 07:25:22;;;;;;;17.47;7.37;;;;;;;4.05;99.42;102816.53;6085010;28;20037;-71
2022/01/23 07:28:20;;;;;;;20.63;7.60;;;;;;;4.06;99.06;102831.34;6074755;28;20091;-71
2022/01/23 07:31:43;;;;;;;19.27;7.78;;;;;;;4.04;99.29;102825.28;6075885;28;20123;-71
2022/01/23 07:34:37;;;;;;;20.63;7.95;;;;;;;4.07;99.67;102835.69;6076504;28;20048;-71
2022/01/23 07:37:32;;;;;;;22.95;7.65;;;;;;;4.06;99.56;102840.06;6063359;28;20025;-71
2022/01/23 07:40:28;;;;;;;18.40;7.87;;;;;;;4.09;99.27;102833.88;6074565;28;20025;-71
2022/01/23 07:43:23;;;;;;;17.00;6.63;;;;;;;4.12;98.83;102841.63;6069598;28;20116;-71
2022/01/23 07:46:19;;;;;;;20.03;7.10;;;;;;;4.09;99.72;102836.50;6077275;28;20026;-71
2022/01/23 07:49:14;;;;;;;16.67;6.68;;;;;;;4.11;99.05;102837.28;6077140;28;20391;-71
2022/01/23 07:52:09;;;;;;;15.77;7.10;;;;;;;4.12;99.74;102844.25;6076185;28;20033;-72
2022/01/23 07:55:10;;;;;;;17.53;7.20;;;;;;;4.13;99.22;102846.00;6077156;28;20033;-72
2022/01/23 07:58:12;;;;;;;17.55;7.00;;;;;;;4.12;99.75;102857.38;6076042;28;20038;-72
2022/01/23 08:01:08;;;;;;;15.48;6.07;;;;;;;4.14;98.95;102858.19;6076499;28;20064;-72
2022/01/23 08:04:03;;;;;;;16.20;6.27;;;;;;;4.16;98.64;102869.47;6076824;28;20444;-72
2022/01/23 08:07:30;;;;;;;14.90;5.95;;;;;;;4.16;99.17;102870.34;6076469;28;20268;-73
2022/01/23 08:10:25;;;;;;;;;;;;;;;4.24;99.89;102864.81;6076345;28;20064;-73
2022/01/23 08:13:21;;;;;;;15.07;6.40;;;;;;;4.23;99.60;102871.00;6076182;28;20300;-72
2022/01/23 08:16:16;;;;;;;15.87;6.20;;;;;;;4.25;99.78;102866.56;6074061;28;20500;-72
2022/01/23 08:19:11;;;;;;;16.80;6.90;;;;;;;4.26;98.60;102873.53;6065402;28;20041;-72
2022/01/23 08:22:07;;;;;;;13.60;6.17;;;;;;;4.32;99.97;102875.09;6051799;28;20370;-73
2022/01/23 08:25:03;;;;;;;16.40;7.00;;;;;;;4.32;99.33;102881.19;6051748;28;20040;-72
2022/01/23 08:27:59;;;;;;;14.90;7.18;;;;;;;4.38;98.93;102883.59;6052212;28;20597;-73
2022/01/23 08:30:54;;;;;;;15.23;6.88;;;;;;;4.33;99.76;102885.53;6076554;28;20166;-73
2022/01/23 08:33:50;;;;;;;18.07;8.23;;;;;;;4.36;99.30;102885.44;6072487;28;20049;-72
2022/01/23 08:36:45;;;;;;;16.90;6.68;;;;;;;4.36;99.21;102882.81;6052447;28;20066;-72
2022/01/23 08:39:41;;;;;;;15.33;6.87;;;;;;;4.40;98.92;102892.31;6051883;28;20045;-73
2022/01/23 08:42:36;;;;;;;17.38;8.38;;;;;;;4.43;98.82;102886.09;6072252;28;20037;-73
2022/01/23 08:45:31;;;;;;;16.70;7.40;;;;;;;4.44;100.00;102887.78;6075226;28;20041;-73
2022/01/23 08:48:27;;;;;;;16.27;6.67;;;;;;;4.45;99.66;102895.63;6075830;28;20022;-72
2022/01/23 08:51:22;;;;;;;19.83;8.30;;;;;;;4.48;99.08;102900.78;6075120;28;20040;-72
2022/01/23 08:54:17;;;;;;;17.87;6.57;;;;;;;4.57;99.27;102900.44;6075078;28;20057;-72
2022/01/23 08:57:14;;;;;;;17.37;6.90;;;;;;;4.53;99.58;102904.09;6074950;28;20472;-72
2022/01/23 09:00:09;;;;;;;15.70;7.00;;;;;;;4.52;99.16;102905.00;6067487;28;20068;-72
2022/01/23 09:03:05;;;;;;;16.70;6.50;;;;;;;4.51;99.57;102903.28;6079519;28;20426;-72
2022/01/23 09:06:00;;;;;;;17.20;6.73;;;;;;;4.53;98.93;102904.09;6078725;28;20037;-72
2022/01/23 09:08:58;;;;;;;18.60;7.07;;;;;;;4.59;99.72;102903.03;6073741;28;20084;-72
2022/01/23 09:14:51;;;;;;;18.50;6.90;;;;;;;4.62;99.21;102901.13;6074545;28;20040;-72
2022/01/23 09:17:47;;;;;;;18.80;7.00;;;;;;;4.64;99.04;102901.09;6073909;28;20057;-72
2022/01/23 09:20:42;;;;;;;15.33;6.77;;;;;;;4.63;99.22;102900.22;6073163;28;20044;-72
2022/01/23 09:23:37;;;;;;;16.83;6.43;;;;;;;4.64;99.20;102904.59;6074441;28;20041;-72
2022/01/23 09:26:34;;;;;;;14.43;5.97;;;;;;;4.60;99.44;102905.59;6074367;28;20036;-72
2022/01/23 09:29:39;;;;;;;17.98;9.00;;;;;;;4.67;99.25;102904.44;6074204;28;20397;-73
2022/01/23 09:32:34;;;;;;;18.15;7.93;;;;;;;4.71;99.08;102903.44;6066623;28;20142;-73
2022/01/23 09:35:30;;;;;;;13.82;6.05;;;;;;;4.72;98.93;102894.66;6074263;28;20037;-71
2022/01/23 09:38:25;;;;;;;15.25;6.85;;;;;;;4.69;99.75;102900.03;6073559;28;20044;-73
2022/01/23 09:41:26;;;;;;;15.33;7.13;;;;;;;4.77;98.45;102892.72;6073095;28;20041;-73
2022/01/23 09:44:22;;;;;;;;;;;;;;;4.83;99.29;102896.91;6072940;28;20037;-73
2022/01/23 09:47:20;;;;;;;13.00;5.50;;;;;;;4.85;98.64;102902.94;6074022;28;19920;-73
2022/01/23 09:50:15;;;;;;;11.27;4.55;;;;;;;4.84;98.53;102897.75;6070256;28;20030;-73
2022/01/23 09:53:13;;;;;;;13.70;5.03;;;;;;;4.87;99.11;102900.25;6074173;28;20056;-72
2022/01/23 09:56:09;;;;;;;15.65;5.53;;;;;;;4.87;99.48;102906.38;6073721;28;20048;-72
2022/01/23 09:59:05;;;;;;;14.02;5.55;;;;;;;4.89;99.36;102904.56;6074051;28;20524;-73
2022/01/23 10:02:03;;;;;;;11.75;5.30;;;;;;;4.91;98.98;102915.00;6060198;28;20139;-72
2022/01/23 10:04:58;;;;;;;12.00;5.38;;;;;;;4.94;99.40;102909.66;6072368;28;20033;-72
2022/01/23 10:07:54;;;;;;;15.00;5.40;;;;;;;4.91;99.34;102905.34;6065777;28;20056;-73
2022/01/23 10:10:54;;;;;;;15.73;6.03;;;;;;;4.86;99.12;102911.69;6066748;28;20033;-72
2022/01/23 10:13:50;;;;;;;12.05;5.30;;;;;;;4.87;98.82;102908.13;6072398;28;20377;-73
2022/01/23 10:16:47;;;;;;;14.75;5.97;;;;;;;4.96;98.86;102915.69;6072878;28;20037;-73
2022/01/23 10:19:42;;;;;;;16.00;5.78;;;;;;;5.03;99.21;102915.41;6071441;28;20037;-72
2022/01/23 10:22:41;;;;;;;13.18;6.03;;;;;;;5.02;99.13;102912.84;6070322;28;20025;-72
2022/01/23 10:25:43;;;;;;;12.95;6.18;;;;;;;5.06;98.89;102919.69;6058860;28;20037;-73
2022/01/23 10:28:38;;;;;;;14.20;6.05;;;;;;;5.05;99.14;102912.75;6070369;28;20059;-73
2022/01/23 10:31:33;;;;;;;14.40;6.38;;;;;;;5.02;98.74;102912.84;6055859;28;20438;-72
2022/01/23 10:34:51;;;;;;;14.07;5.83;;;;;;;5.03;99.06;102911.94;6069805;28;20041;-73
2022/01/23 10:37:49;;;;;;;13.82;5.60;;;;;;;5.09;98.76;102924.84;6067275;28;20237;-73
2022/01/23 10:40:51;;;;;;;16.85;6.75;;;;;;;5.13;98.97;102918.56;6060580;28;20362;-73
2022/01/23 10:50:15;;;;;;;15.75;6.75;;;;;;;5.05;99.29;102923.25;6073396;28;20043;-73
2022/01/23 10:53:10;;;;;;;14.47;5.57;;;;;;;5.07;98.98;102917.03;6078721;28;20037;-72
2022/01/23 10:56:06;;;;;;;17.13;6.57;;;;;;;5.05;98.58;102924.13;6075242;28;20280;-72
2022/01/23 10:59:12;;;;;;;15.30;6.32;;;;;;;5.07;99.14;102916.16;6073298;28;20030;-73
2022/01/23 11:02:12;;;;;;;20.60;9.30;;;;;;;5.10;98.60;102916.91;6063471;28;20025;-72
2022/01/23 11:05:11;;;;;;;18.02;6.53;;;;;;;5.13;98.56;102921.19;6081107;28;20033;-72
2022/01/23 11:08:27;;;;;;;16.33;7.53;;;;;;;5.17;98.67;102922.78;6078478;28;20029;-73
2022/01/23 11:11:38;;;;;;;15.13;7.47;;;;;;;5.18;98.80;102925.38;6071593;28;20033;-73
2022/01/23 11:17:51;;;;;;;22.63;8.07;;;;;;;5.09;99.01;102925.72;6078972;28;20128;-73
2022/01/23 11:20:49;;;;;;;18.48;6.78;;;;;;;5.11;98.50;102931.75;6070909;28;20523;-73
2022/01/23 11:23:54;;;;;;;18.90;6.95;;;;;;;5.13;98.78;102932.59;6080806;28;20448;-72
2022/01/23 11:27:01;;;;;;;18.73;7.47;;;;;;;5.17;98.57;102933.31;6079815;28;20029;-73
2022/01/23 11:30:13;;;;;;;17.98;7.63;;;;;;;5.19;98.43;102931.50;6080927;28;20056;-73
2022/01/23 11:33:11;;;;;;;24.38;7.90;;;;;;;5.20;98.39;102923.53;6072453;28;20088;-73
2022/01/23 11:36:07;;;;;;;16.90;7.03;;;;;;;5.24;99.24;102924.28;6078646;28;20045;-73
2022/01/23 11:39:19;;;;;;;16.50;8.10;;;;;;;5.29;98.39;102922.34;6077637;28;20056;-73
2022/01/23 11:55:36;;;;;;;15.60;7.15;;;;;;;5.48;98.80;102912.84;6073532;28;20476;-73
2022/01/23 11:58:36;;;;;;;18.80;7.35;;;;;;;5.51;98.43;102912.72;6075032;28;20025;-73
2022/01/23 12:01:31;;;;;;;13.00;6.32;;;;;;;5.53;99.03;102910.88;6074642;28;20057;-73
2022/01/23 12:04:33;;;;;;;12.70;6.00;;;;;;;5.48;98.40;102907.56;6075369;28;20491;-73
2022/01/23 12:07:28;;;;;;;13.20;5.47;;;;;;;5.54;98.64;102901.22;6074976;28;20033;-73
2022/01/23 12:10:29;;;;;;;13.77;5.73;;;;;;;5.55;99.08;102898.50;6072271;28;20758;-73
2022/01/23 12:16:53;;;;;;;14.65;6.07;;;;;;;5.61;98.40;102908.81;6059870;28;20030;-72
2022/01/23 12:19:51;;;;;;;15.48;6.70;;;;;;;5.59;98.25;102905.38;6066523;28;20116;-73
2022/01/23 12:22:53;;;;;;;22.08;6.80;;;;;;;5.63;98.69;102904.31;6074378;28;20051;-73
2022/01/23 12:25:53;;;;;;;13.77;5.80;;;;;;;5.63;98.80;102895.56;6075100;28;20387;-74
2022/01/23 12:28:49;;;;;;;13.73;6.38;;;;;;;5.67;98.93;102897.19;6066989;28;20033;-73
2022/01/23 12:31:45;;;;;;;13.00;6.33;;;;;;;5.71;98.13;102898.75;6052758;28;20448;-73
2022/01/23 12:34:46;;;;;;;16.83;7.28;;;;;;;5.77;98.46;102895.88;6071621;28;20040;-73
2022/01/23 12:38:05;;;;;;;17.77;6.40;;;;;;;5.80;98.16;102887.88;6075539;28;20396;-73
2022/01/23 12:41:14;;;;;;;15.93;6.70;;;;;;;5.75;98.62;102885.44;6063709;28;20137;-73
2022/01/23 12:44:22;;;;;;;15.48;6.50;;;;;;;5.74;98.23;102891.59;6072533;28;20128;-73
2022/01/23 12:47:19;;;;;;;16.92;6.82;;;;;;;5.75;98.08;102879.31;6064035;28;20061;-73
2022/01/23 12:50:44;;;;;;;17.83;7.00;;;;;;;5.72;98.42;102887.31;6073623;28;20037;-73
2022/01/23 12:53:48;;;;;;;17.02;7.28;;;;;;;5.77;98.98;102894.13;6067082;28;20365;-73
2022/01/23 12:56:45;;;;;;;17.33;7.43;;;;;;;5.74;98.55;102888.97;6071747;28;20034;-73
2022/01/23 12:59:43;;;;;;;17.33;6.50;;;;;;;5.72;98.80;102893.44;6073973;28;20040;-73
2022/01/23 13:02:44;;;;;;;15.25;6.88;;;;;;;5.69;98.76;102892.69;6073401;28;20037;-73
2022/01/23 13:05:46;;;;;;;13.77;5.72;;;;;;;5.72;98.35;102896.06;6073250;28;20026;-73
2022/01/23 13:08:50;;;;;;;16.55;6.18;;;;;;;5.76;98.60;102900.28;6070736;28;20127;-73
2022/01/23 13:11:55;;;;;;;17.05;5.90;;;;;;;5.73;98.67;102897.81;6072098;28;20039;-73
2022/01/23 13:18:17;;;;;;;15.65;7.38;;;;;;;5.67;98.42;102898.03;6073460;28;20045;-73
2022/01/23 13:31:15;;;;;;;17.40;6.35;;;;;;;5.70;99.15;102903.19;6056635;28;20026;-73
2022/01/23 13:34:32;;;;;;;18.52;7.03;;;;;;;5.69;98.61;102900.59;6066592;28;20037;-73
2022/01/23 13:37:31;;;;;;;21.58;7.05;;;;;;;5.70;98.72;102908.44;6068230;28;20056;-73
2022/01/23 13:40:36;;;;;;;15.65;7.70;;;;;;;5.68;98.96;102905.00;6066131;28;20029;-74
2022/01/23 13:51:13;;;;;;;17.40;7.47;;;;;;;5.70;99.37;102899.69;6070909;28;20053;-73
2022/01/23 14:00:22;;;;;;;16.33;6.90;;;;;;;5.66;99.28;102898.94;6057471;28;20037;-73
2022/01/23 14:03:17;;;;;;;15.73;7.28;;;;;;;5.66;98.95;102895.44;6050444;28;20053;-73
2022/01/23 14:06:12;;;;;;;20.33;8.00;;;;;;;5.69;99.62;102892.69;6048936;28;20072;-73
2022/01/23 14:09:11;;;;;;;16.07;7.77;;;;;;;5.64;99.13;102897.28;6065005;28;20117;-73
2022/01/23 14:12:10;;;;;;;17.35;6.82;;;;;;;5.63;99.57;102891.16;6059407;28;20280;-73
2022/01/23 14:15:11;;;;;;;19.65;7.18;;;;;;;5.63;99.39;102904.31;6072886;28;20029;-72
2022/01/23 14:18:08;;;;;;;19.15;7.53;;;;;;;5.58;99.38;102898.41;6069386;28;20030;-73
2022/01/23 14:21:06;;;;;;;18.92;7.85;;;;;;;5.57;98.79;102907.19;6062154;28;20033;-73
2022/01/23 14:24:01;;;;;;;17.27;7.47;;;;;;;5.60;99.52;102901.81;6053997;28;20045;-73
2022/01/23 14:27:11;;;;;;;19.67;7.83;;;;;;;5.66;99.23;102908.59;6071880;28;20477;-73
2022/01/23 14:30:09;;;;;;;20.77;7.35;;;;;;;5.63;98.97;102911.34;6071934;28;20022;-73
2022/01/23 14:33:13;;;;;;;18.65;8.02;;;;;;;5.62;99.25;102902.63;6073199;28;20036;-73
2022/01/23 14:36:20;;;;;;;16.30;6.13;;;;;;;5.67;98.93;102898.03;6064236;28;20037;-72
2022/01/23 14:39:15;;;;;;;20.25;7.13;;;;;;;5.65;99.67;102907.78;6058857;28;20034;-73
2022/01/23 14:42:14;;;;;;;16.63;8.10;;;;;;;5.60;99.42;102912.34;6066349;28;20033;-72
2022/01/23 14:45:09;;;;;;;18.80;7.28;;;;;;;5.61;99.18;102916.69;6073002;28;20079;-72
2022/01/23 14:48:06;;;;;;;14.93;7.05;;;;;;;5.63;99.56;102919.25;6049826;28;20026;-72
2022/01/23 14:51:04;;;;;;;20.50;7.32;;;;;;;5.62;99.62;102912.31;6069752;28;20041;-72
2022/01/23 14:54:00;;;;;;;20.15;6.90;;;;;;;5.63;99.36;102922.75;6071467;28;20040;-72
2022/01/23 14:56:58;;;;;;;16.92;7.68;;;;;;;5.69;99.41;102917.25;6064335;28;20137;-72
2022/01/23 14:59:57;;;;;;;16.52;7.15;;;;;;;5.74;99.76;102919.69;6057187;28;20029;-72
2022/01/23 15:02:54;;;;;;;18.92;7.78;;;;;;;5.65;99.37;102915.69;6058326;28;20040;-72
2022/01/23 15:05:50;;;;;;;18.08;7.18;;;;;;;5.74;99.83;102930.22;6072916;28;20115;-72
2022/01/23 15:08:46;;;;;;;20.98;7.88;;;;;;;5.68;99.31;102926.06;6073168;28;20041;-72
2022/01/23 15:11:41;;;;;;;19.10;8.05;;;;;;;5.70;99.55;102926.88;6070926;28;20030;-72
2022/01/23 15:14:37;;;;;;;19.27;8.00;;;;;;;5.67;99.41;102931.38;6072044;28;20064;-72
2022/01/23 15:17:33;;;;;;;22.48;8.25;;;;;;;5.60;99.86;102928.13;6058417;28;20444;-73
2022/01/23 15:20:30;;;;;;;19.55;7.95;;;;;;;5.61;99.01;102929.84;6071096;28;20060;-71
2022/01/23 15:23:25;;;;;;;25.48;11.43;;;;;;;5.65;99.73;102936.72;6073178;28;20030;-71
2022/01/23 15:26:25;;;;;;;37.73;16.43;;;;;;;5.65;98.93;102931.47;6071487;28;20425;-71
2022/01/23 15:29:21;;;;;;;29.70;12.57;;;;;;;5.61;99.63;102929.84;6065878;28;20434;-72
2022/01/23 15:32:16;;;;;;;49.40;20.77;;;;;;;5.62;99.01;102931.59;6072538;28;20037;-74
2022/01/23 15:35:13;;;;;;;27.20;9.37;;;;;;;5.61;99.22;102936.88;6077591;28;20303;-73
2022/01/23 15:38:08;;;;;;;20.33;9.73;;;;;;;5.60;100.00;102927.31;6077027;28;20272;-71
2022/01/23 15:41:03;;;;;;;21.17;9.07;;;;;;;5.58;99.31;102937.00;6076386;28;20044;-71
2022/01/23 15:43:59;;;;;;;21.70;9.17;;;;;;;5.59;99.99;102941.38;6077038;28;20420;-73
2022/01/23 15:46:54;;;;;;;23.13;9.10;;;;;;;5.57;99.44;102938.78;6076905;28;20272;-72
2022/01/23 15:49:49;;;;;;;20.02;8.48;;;;;;;5.53;99.72;102931.06;6077072;28;20523;-72
2022/01/23 15:52:46;;;;;;;24.40;9.53;;;;;;;5.53;99.58;102939.81;6075801;28;20030;-72
2022/01/23 15:55:41;;;;;;;19.67;8.75;;;;;;;5.54;99.97;102938.91;6079187;28;20029;-72
2022/01/23 15:58:36;;;;;;;18.85;8.75;;;;;;;5.51;100.00;102944.28;6071632;28;20026;-72
2022/01/23 16:01:34;;;;;;;22.23;9.50;;;;;;;5.51;99.77;102939.03;6060721;28;20037;-72
2022/01/23 16:04:32;;;;;;;25.38;11.07;;;;;;;5.48;99.42;102939.16;6076340;28;20072;-71
2022/01/23 16:07:28;;;;;;;25.95;10.95;;;;;;;5.46;100.00;102945.38;6076608;28;20029;-72
2022/01/23 16:10:23;;;;;;;22.35;9.23;;;;;;;5.48;99.93;102936.50;6075369;28;20065;-72
2022/01/23 16:13:19;;;;;;;23.67;10.07;;;;;;;5.49;100.00;102946.09;6076379;28;20179;-73
2022/01/23 16:16:14;;;;;;;25.97;9.63;;;;;;;5.46;100.00;102946.25;6076428;28;20029;-72
2022/01/23 16:19:09;;;;;;;23.20;9.53;;;;;;;5.50;100.00;102941.69;6063459;28;20756;-72
2022/01/23 16:22:05;;;;;;;26.30;9.93;;;;;;;5.51;99.93;102946.06;6051731;28;20026;-71
2022/01/23 16:25:01;;;;;;;23.00;9.55;;;;;;;5.47;99.80;102942.69;6060978;28;20037;-71
2022/01/23 16:27:56;;;;;;;21.52;9.35;;;;;;;5.49;100.00;102942.63;6076455;28;20087;-71
2022/01/23 16:30:56;;;;;;;21.30;9.33;;;;;;;5.47;100.00;102958.47;6075157;28;20389;-71
2022/01/23 16:33:52;;;;;;;19.98;9.20;;;;;;;5.49;99.27;102956.63;6075108;28;20060;-72
2022/01/23 16:36:48;;;;;;;18.63;8.47;;;;;;;5.48;99.74;102952.31;6057063;28;20021;-71
2022/01/23 16:39:43;;;;;;;19.17;8.07;;;;;;;5.50;100.00;102963.63;6060796;28;20048;-71
2022/01/23 16:42:38;;;;;;;17.27;7.93;;;;;;;5.54;99.91;102965.22;6062145;28;20025;-71
2022/01/23 16:45:34;;;;;;;20.47;8.37;;;;;;;5.50;100.00;102963.63;6074353;28;20033;-72
2022/01/23 16:48:30;;;;;;;18.48;8.77;;;;;;;5.51;99.94;102965.34;6068557;28;20751;-71
2022/01/23 16:51:25;;;;;;;20.65;7.90;;;;;;;5.49;100.00;102961.88;6073348;28;20029;-71